sensor_id;sensor_type;location;lat;lon;timestamp;temperature;humidity
17992;DHT22;9121;50.926;5.340;2022-07-29T00:00:41;19.50;99.90
17992;DHT22;9121;50.926;5.340;2022-07-29T00:03:10;19.40;99.90
17992;DHT22;9121;50.926;5.340;2022-07-29T00:05:38;19.40;99.90
17992;DHT22;9121;50.926;5.340;2022-07-29T00:08:07;19.30;99.90
17992;DHT22;9121;50.926;5.340;2022-07-29T00:10:34;19.30;99.90
17992;DHT22;9121;50.926;5.340;2022-07-29T00:13:05;19.40;99.90
17992;DHT22;9121;50.926;5.340;2022-07-29T00:15:32;19.50;99.90
17992;DHT22;9121;50.926;5.340;2022-07-29T00:17:59;19.50;99.90
17992;DHT22;9121;50.926;5.340;2022-07-29T00:20:26;19.40;99.90
17992;DHT22;9121;50.926;5.340;2022-07-29T00:22:53;19.40;99.90
17992;DHT22;9121;50.926;5.340;2022-07-29T00:25:21;19.50;99.90
17992;DHT22;9121;50.926;5.340;2022-07-29T00:27:48;19.40;99.90
17992;DHT22;9121;50.926;5.340;2022-07-29T00:30:15;19.40;99.90
17992;DHT22;9121;50.926;5.340;2022-07-29T00:32:42;19.40;99.90
17992;DHT22;9121;50.926;5.340;2022-07-29T00:35:09;19.40;99.90
17992;DHT22;9121;50.926;5.340;2022-07-29T00:37:53;19.30;99.90
17992;DHT22;9121;50.926;5.340;2022-07-29T00:40:22;19.50;99.90
17992;DHT22;9121;50.926;5.340;2022-07-29T00:42:50;19.50;99.90
17992;DHT22;9121;50.926;5.340;2022-07-29T00:45:17;19.40;99.90
17992;DHT22;9121;50.926;5.340;2022-07-29T00:47:45;19.40;99.90
17992;DHT22;9121;50.926;5.340;2022-07-29T00:50:12;19.30;99.90
17992;DHT22;9121;50.926;5.340;2022-07-29T00:52:40;19.20;99.90
17992;DHT22;9121;50.926;5.340;2022-07-29T00:55:10;19.20;99.90
17992;DHT22;9121;50.926;5.340;2022-07-29T00:57:39;19.20;99.90
17992;DHT22;9121;50.926;5.340;2022-07-29T01:00:09;19.10;99.90
17992;DHT22;9121;50.926;5.340;2022-07-29T01:02:37;19.00;99.90
17992;DHT22;9121;50.926;5.340;2022-07-29T01:05:04;19.00;99.90
17992;DHT22;9121;50.926;5.340;2022-07-29T01:07:32;18.90;99.90
17992;DHT22;9121;50.926;5.340;2022-07-29T01:10:02;18.80;99.90
17992;DHT22;9121;50.926;5.340;2022-07-29T01:12:30;18.80;99.90
17992;DHT22;9121;50.926;5.340;2022-07-29T01:15:00;18.80;99.90
17992;DHT22;9121;50.926;5.340;2022-07-29T01:17:33;18.80;99.90
17992;DHT22;9121;50.926;5.340;2022-07-29T01:20:07;18.80;99.90
17992;DHT22;9121;50.926;5.340;2022-07-29T01:25:45;18.70;99.90
17992;DHT22;9121;50.926;5.340;2022-07-29T01:31:18;18.50;99.90
17992;DHT22;9121;50.926;5.340;2022-07-29T01:33:52;18.50;99.90
17992;DHT22;9121;50.926;5.340;2022-07-29T01:36:25;18.50;99.90
17992;DHT22;9121;50.926;5.340;2022-07-29T01:38:59;18.60;99.90
17992;DHT22;9121;50.926;5.340;2022-07-29T01:41:31;18.80;99.90
17992;DHT22;9121;50.926;5.340;2022-07-29T01:44:02;18.50;99.90
17992;DHT22;9121;50.926;5.340;2022-07-29T01:46:36;18.30;99.90
17992;DHT22;9121;50.926;5.340;2022-07-29T01:49:08;18.20;99.90
17992;DHT22;9121;50.926;5.340;2022-07-29T01:51:41;18.20;99.90
17992;DHT22;9121;50.926;5.340;2022-07-29T01:54:14;18.00;99.90
17992;DHT22;9121;50.926;5.340;2022-07-29T01:56:43;17.90;99.90
17992;DHT22;9121;50.926;5.340;2022-07-29T01:59:11;18.00;99.90
17992;DHT22;9121;50.926;5.340;2022-07-29T02:01:41;18.00;99.90
17992;DHT22;9121;50.926;5.340;2022-07-29T02:04:11;18.00;99.90
17992;DHT22;9121;50.926;5.340;2022-07-29T02:06:40;17.90;99.90
17992;DHT22;9121;50.926;5.340;2022-07-29T02:09:09;17.80;99.90
17992;DHT22;9121;50.926;5.340;2022-07-29T02:11:38;17.60;99.90
17992;DHT22;9121;50.926;5.340;2022-07-29T02:14:07;17.50;99.90
17992;DHT22;9121;50.926;5.340;2022-07-29T02:16:36;17.40;99.90
17992;DHT22;9121;50.926;5.340;2022-07-29T02:19:04;17.30;99.90
17992;DHT22;9121;50.926;5.340;2022-07-29T02:21:34;17.30;99.90
17992;DHT22;9121;50.926;5.340;2022-07-29T02:24:03;17.50;99.90
17992;DHT22;9121;50.926;5.340;2022-07-29T02:26:32;17.60;99.90
17992;DHT22;9121;50.926;5.340;2022-07-29T02:29:01;17.60;99.90
17992;DHT22;9121;50.926;5.340;2022-07-29T02:31:31;17.70;99.90
17992;DHT22;9121;50.926;5.340;2022-07-29T02:34:00;17.70;99.90
17992;DHT22;9121;50.926;5.340;2022-07-29T02:36:30;17.70;99.90
17992;DHT22;9121;50.926;5.340;2022-07-29T02:38:58;17.80;99.90
17992;DHT22;9121;50.926;5.340;2022-07-29T02:41:30;17.80;99.90
17992;DHT22;9121;50.926;5.340;2022-07-29T02:44:03;17.90;99.90
17992;DHT22;9121;50.926;5.340;2022-07-29T02:46:34;18.00;99.90
17992;DHT22;9121;50.926;5.340;2022-07-29T02:49:07;17.90;99.90
17992;DHT22;9121;50.926;5.340;2022-07-29T02:51:42;18.00;99.90
17992;DHT22;9121;50.926;5.340;2022-07-29T02:54:11;18.00;99.90
17992;DHT22;9121;50.926;5.340;2022-07-29T02:56:42;18.00;99.90
17992;DHT22;9121;50.926;5.340;2022-07-29T02:59:11;18.20;99.90
17992;DHT22;9121;50.926;5.340;2022-07-29T03:01:42;18.40;99.90
17992;DHT22;9121;50.926;5.340;2022-07-29T03:04:10;18.50;99.90
17992;DHT22;9121;50.926;5.340;2022-07-29T03:06:40;18.50;99.90
17992;DHT22;9121;50.926;5.340;2022-07-29T03:09:07;18.40;99.90
17992;DHT22;9121;50.926;5.340;2022-07-29T03:11:35;18.40;99.90
17992;DHT22;9121;50.926;5.340;2022-07-29T03:14:03;18.30;99.90
17992;DHT22;9121;50.926;5.340;2022-07-29T03:16:31;18.40;99.90
17992;DHT22;9121;50.926;5.340;2022-07-29T03:18:58;18.40;99.90
17992;DHT22;9121;50.926;5.340;2022-07-29T03:21:25;18.40;99.90
17992;DHT22;9121;50.926;5.340;2022-07-29T03:23:54;18.50;99.90
17992;DHT22;9121;50.926;5.340;2022-07-29T03:26:21;18.60;99.90
17992;DHT22;9121;50.926;5.340;2022-07-29T03:28:47;18.60;99.90
17992;DHT22;9121;50.926;5.340;2022-07-29T03:31:14;18.50;99.90
17992;DHT22;9121;50.926;5.340;2022-07-29T03:33:41;18.50;99.90
17992;DHT22;9121;50.926;5.340;2022-07-29T03:36:08;18.50;99.90
17992;DHT22;9121;50.926;5.340;2022-07-29T03:38:35;18.50;99.90
17992;DHT22;9121;50.926;5.340;2022-07-29T03:41:07;18.30;99.90
17992;DHT22;9121;50.926;5.340;2022-07-29T03:43:37;18.40;99.90
17992;DHT22;9121;50.926;5.340;2022-07-29T03:46:07;18.50;99.90
17992;DHT22;9121;50.926;5.340;2022-07-29T03:48:36;18.50;99.90
17992;DHT22;9121;50.926;5.340;2022-07-29T03:51:05;18.40;99.90
17992;DHT22;9121;50.926;5.340;2022-07-29T03:53:32;18.40;99.90
17992;DHT22;9121;50.926;5.340;2022-07-29T03:56:02;18.40;99.90
17992;DHT22;9121;50.926;5.340;2022-07-29T03:58:31;18.40;99.90
17992;DHT22;9121;50.926;5.340;2022-07-29T04:00:59;18.40;99.90
17992;DHT22;9121;50.926;5.340;2022-07-29T04:03:26;18.40;99.90
17992;DHT22;9121;50.926;5.340;2022-07-29T04:06:01;18.50;99.90
17992;DHT22;9121;50.926;5.340;2022-07-29T04:08:28;18.50;99.90
17992;DHT22;9121;50.926;5.340;2022-07-29T04:10:55;18.50;99.90
17992;DHT22;9121;50.926;5.340;2022-07-29T04:13:22;18.60;99.90
17992;DHT22;9121;50.926;5.340;2022-07-29T04:15:50;18.60;99.90
17992;DHT22;9121;50.926;5.340;2022-07-29T04:18:17;18.60;99.90
17992;DHT22;9121;50.926;5.340;2022-07-29T04:20:44;18.60;99.90
17992;DHT22;9121;50.926;5.340;2022-07-29T04:23:11;18.50;99.90
17992;DHT22;9121;50.926;5.340;2022-07-29T04:25:38;18.50;99.90
17992;DHT22;9121;50.926;5.340;2022-07-29T04:28:05;18.50;99.90
17992;DHT22;9121;50.926;5.340;2022-07-29T04:30:33;18.50;99.90
17992;DHT22;9121;50.926;5.340;2022-07-29T04:33:02;18.60;99.90
17992;DHT22;9121;50.926;5.340;2022-07-29T04:35:30;18.50;99.90
17992;DHT22;9121;50.926;5.340;2022-07-29T04:37:57;18.60;99.90
17992;DHT22;9121;50.926;5.340;2022-07-29T04:40:23;18.50;99.90
17992;DHT22;9121;50.926;5.340;2022-07-29T04:42:50;18.50;99.90
17992;DHT22;9121;50.926;5.340;2022-07-29T04:45:17;18.40;99.90
17992;DHT22;9121;50.926;5.340;2022-07-29T04:47:44;18.50;99.90
17992;DHT22;9121;50.926;5.340;2022-07-29T04:50:13;18.50;99.90
17992;DHT22;9121;50.926;5.340;2022-07-29T04:52:40;18.50;99.90
17992;DHT22;9121;50.926;5.340;2022-07-29T04:55:07;18.40;99.90
17992;DHT22;9121;50.926;5.340;2022-07-29T04:57:35;18.40;99.90
17992;DHT22;9121;50.926;5.340;2022-07-29T05:00:02;18.40;99.90
17992;DHT22;9121;50.926;5.340;2022-07-29T05:02:29;18.40;99.90
17992;DHT22;9121;50.926;5.340;2022-07-29T05:04:56;18.40;99.90
17992;DHT22;9121;50.926;5.340;2022-07-29T05:07:25;18.30;99.90
17992;DHT22;9121;50.926;5.340;2022-07-29T05:09:51;18.20;99.90
17992;DHT22;9121;50.926;5.340;2022-07-29T05:12:19;18.30;99.90
17992;DHT22;9121;50.926;5.340;2022-07-29T05:14:46;18.30;99.90
17992;DHT22;9121;50.926;5.340;2022-07-29T05:17:13;18.20;99.90
17992;DHT22;9121;50.926;5.340;2022-07-29T05:19:39;18.20;99.90
17992;DHT22;9121;50.926;5.340;2022-07-29T05:22:06;18.10;99.90
17992;DHT22;9121;50.926;5.340;2022-07-29T05:24:35;18.10;99.90
17992;DHT22;9121;50.926;5.340;2022-07-29T05:27:02;18.20;99.90
17992;DHT22;9121;50.926;5.340;2022-07-29T05:29:29;18.20;99.90
17992;DHT22;9121;50.926;5.340;2022-07-29T05:31:56;18.20;99.90
17992;DHT22;9121;50.926;5.340;2022-07-29T05:34:23;18.20;99.90
17992;DHT22;9121;50.926;5.340;2022-07-29T05:36:50;18.20;99.90
17992;DHT22;9121;50.926;5.340;2022-07-29T05:39:17;18.20;99.90
17992;DHT22;9121;50.926;5.340;2022-07-29T05:41:46;18.20;99.90
17992;DHT22;9121;50.926;5.340;2022-07-29T05:44:13;18.20;99.90
17992;DHT22;9121;50.926;5.340;2022-07-29T05:46:40;18.20;99.90
17992;DHT22;9121;50.926;5.340;2022-07-29T05:49:07;18.10;99.90
17992;DHT22;9121;50.926;5.340;2022-07-29T05:51:34;18.20;99.90
17992;DHT22;9121;50.926;5.340;2022-07-29T05:54:01;18.20;99.90
17992;DHT22;9121;50.926;5.340;2022-07-29T05:56:28;18.30;99.90
17992;DHT22;9121;50.926;5.340;2022-07-29T05:58:56;18.20;99.90
17992;DHT22;9121;50.926;5.340;2022-07-29T06:01:24;18.20;99.90
17992;DHT22;9121;50.926;5.340;2022-07-29T06:03:52;18.40;99.90
17992;DHT22;9121;50.926;5.340;2022-07-29T06:06:19;18.40;99.90
17992;DHT22;9121;50.926;5.340;2022-07-29T06:08:46;18.40;99.90
17992;DHT22;9121;50.926;5.340;2022-07-29T06:11:13;18.40;99.90
17992;DHT22;9121;50.926;5.340;2022-07-29T06:13:40;18.40;99.90
17992;DHT22;9121;50.926;5.340;2022-07-29T06:16:08;18.50;99.90
17992;DHT22;9121;50.926;5.340;2022-07-29T06:18:35;18.50;99.90
17992;DHT22;9121;50.926;5.340;2022-07-29T06:21:07;18.50;99.90
17992;DHT22;9121;50.926;5.340;2022-07-29T06:23:35;18.40;99.90
17992;DHT22;9121;50.926;5.340;2022-07-29T06:26:03;18.40;99.90
17992;DHT22;9121;50.926;5.340;2022-07-29T06:28:30;18.50;99.90
17992;DHT22;9121;50.926;5.340;2022-07-29T06:30:57;18.50;99.90
17992;DHT22;9121;50.926;5.340;2022-07-29T06:33:25;18.50;99.90
17992;DHT22;9121;50.926;5.340;2022-07-29T06:35:52;18.60;99.90
17992;DHT22;9121;50.926;5.340;2022-07-29T06:38:19;18.70;99.90
17992;DHT22;9121;50.926;5.340;2022-07-29T06:40:46;18.80;99.90
17992;DHT22;9121;50.926;5.340;2022-07-29T06:43:30;18.90;99.90
17992;DHT22;9121;50.926;5.340;2022-07-29T06:46:00;19.10;99.90
17992;DHT22;9121;50.926;5.340;2022-07-29T06:48:28;19.10;99.90
17992;DHT22;9121;50.926;5.340;2022-07-29T06:50:55;19.00;99.90
17992;DHT22;9121;50.926;5.340;2022-07-29T06:53:22;19.10;99.90
17992;DHT22;9121;50.926;5.340;2022-07-29T06:55:49;19.00;99.90
17992;DHT22;9121;50.926;5.340;2022-07-29T06:58:16;19.10;99.90
17992;DHT22;9121;50.926;5.340;2022-07-29T07:00:46;19.10;99.90
17992;DHT22;9121;50.926;5.340;2022-07-29T07:03:13;19.10;99.90
17992;DHT22;9121;50.926;5.340;2022-07-29T07:05:41;19.10;99.90
17992;DHT22;9121;50.926;5.340;2022-07-29T07:08:08;19.20;99.90
17992;DHT22;9121;50.926;5.340;2022-07-29T07:10:36;19.40;99.90
17992;DHT22;9121;50.926;5.340;2022-07-29T07:13:04;19.50;99.90
17992;DHT22;9121;50.926;5.340;2022-07-29T07:15:32;19.50;99.90
17992;DHT22;9121;50.926;5.340;2022-07-29T07:17:59;19.40;99.90
17992;DHT22;9121;50.926;5.340;2022-07-29T07:20:26;19.50;99.90
17992;DHT22;9121;50.926;5.340;2022-07-29T07:22:55;19.50;99.90
17992;DHT22;9121;50.926;5.340;2022-07-29T07:25:22;19.60;99.90
17992;DHT22;9121;50.926;5.340;2022-07-29T07:27:49;19.60;99.90
17992;DHT22;9121;50.926;5.340;2022-07-29T07:30:16;19.70;99.90
17992;DHT22;9121;50.926;5.340;2022-07-29T07:32:43;19.80;99.90
17992;DHT22;9121;50.926;5.340;2022-07-29T07:35:10;19.80;99.90
17992;DHT22;9121;50.926;5.340;2022-07-29T07:37:38;19.70;99.90
17992;DHT22;9121;50.926;5.340;2022-07-29T07:40:08;19.70;99.90
17992;DHT22;9121;50.926;5.340;2022-07-29T07:42:37;19.70;99.90
17992;DHT22;9121;50.926;5.340;2022-07-29T07:45:05;19.90;99.90
17992;DHT22;9121;50.926;5.340;2022-07-29T07:47:32;20.00;99.90
17992;DHT22;9121;50.926;5.340;2022-07-29T07:49:59;20.00;99.90
17992;DHT22;9121;50.926;5.340;2022-07-29T07:52:26;20.10;99.90
17992;DHT22;9121;50.926;5.340;2022-07-29T07:54:53;20.10;99.90
17992;DHT22;9121;50.926;5.340;2022-07-29T07:57:22;20.00;99.90
17992;DHT22;9121;50.926;5.340;2022-07-29T07:59:49;19.80;99.90
17992;DHT22;9121;50.926;5.340;2022-07-29T08:02:16;20.10;99.90
17992;DHT22;9121;50.926;5.340;2022-07-29T08:04:43;20.40;99.90
17992;DHT22;9121;50.926;5.340;2022-07-29T08:07:10;20.70;99.90
17992;DHT22;9121;50.926;5.340;2022-07-29T08:09:37;20.80;99.90
17992;DHT22;9121;50.926;5.340;2022-07-29T08:12:04;20.90;99.90
17992;DHT22;9121;50.926;5.340;2022-07-29T08:14:33;21.10;99.90
17992;DHT22;9121;50.926;5.340;2022-07-29T08:17:00;21.30;99.90
17992;DHT22;9121;50.926;5.340;2022-07-29T08:19:27;21.20;99.90
17992;DHT22;9121;50.926;5.340;2022-07-29T08:21:54;21.40;99.90
17992;DHT22;9121;50.926;5.340;2022-07-29T08:24:21;21.50;99.90
17992;DHT22;9121;50.926;5.340;2022-07-29T08:27:06;21.70;99.90
17992;DHT22;9121;50.926;5.340;2022-07-29T08:29:35;21.80;99.90
17992;DHT22;9121;50.926;5.340;2022-07-29T08:32:03;22.00;99.90
17992;DHT22;9121;50.926;5.340;2022-07-29T08:34:30;22.10;99.90
17992;DHT22;9121;50.926;5.340;2022-07-29T08:36:57;21.80;99.90
17992;DHT22;9121;50.926;5.340;2022-07-29T08:39:24;21.60;99.90
17992;DHT22;9121;50.926;5.340;2022-07-29T08:41:51;21.70;99.90
17992;DHT22;9121;50.926;5.340;2022-07-29T08:44:20;21.60;99.90
17992;DHT22;9121;50.926;5.340;2022-07-29T08:46:49;21.80;99.90
17992;DHT22;9121;50.926;5.340;2022-07-29T08:49:16;21.90;99.90
17992;DHT22;9121;50.926;5.340;2022-07-29T08:51:44;22.00;99.90
17992;DHT22;9121;50.926;5.340;2022-07-29T08:54:11;22.10;99.90
17992;DHT22;9121;50.926;5.340;2022-07-29T08:56:43;22.20;99.90
17992;DHT22;9121;50.926;5.340;2022-07-29T08:59:11;22.10;99.90
17992;DHT22;9121;50.926;5.340;2022-07-29T09:01:38;22.20;99.90
17992;DHT22;9121;50.926;5.340;2022-07-29T09:04:10;22.30;99.90
17992;DHT22;9121;50.926;5.340;2022-07-29T09:06:42;22.40;99.90
17992;DHT22;9121;50.926;5.340;2022-07-29T09:09:09;22.70;99.90
17992;DHT22;9121;50.926;5.340;2022-07-29T09:11:37;22.70;99.90
17992;DHT22;9121;50.926;5.340;2022-07-29T09:14:04;22.50;99.90
17992;DHT22;9121;50.926;5.340;2022-07-29T09:16:49;22.30;99.90
17992;DHT22;9121;50.926;5.340;2022-07-29T09:19:23;22.40;99.90
17992;DHT22;9121;50.926;5.340;2022-07-29T09:21:50;22.50;99.90
17992;DHT22;9121;50.926;5.340;2022-07-29T09:24:42;22.70;99.90
17992;DHT22;9121;50.926;5.340;2022-07-29T09:27:17;22.80;99.90
17992;DHT22;9121;50.926;5.340;2022-07-29T09:29:45;22.80;99.90
17992;DHT22;9121;50.926;5.340;2022-07-29T09:32:12;22.90;99.90
17992;DHT22;9121;50.926;5.340;2022-07-29T09:34:40;22.90;99.90
17992;DHT22;9121;50.926;5.340;2022-07-29T09:37:07;22.60;99.90
17992;DHT22;9121;50.926;5.340;2022-07-29T09:39:37;22.40;99.90
17992;DHT22;9121;50.926;5.340;2022-07-29T09:42:11;22.60;99.90
17992;DHT22;9121;50.926;5.340;2022-07-29T09:44:43;22.70;99.90
17992;DHT22;9121;50.926;5.340;2022-07-29T09:47:11;23.00;99.90
17992;DHT22;9121;50.926;5.340;2022-07-29T09:49:53;23.10;99.90
17992;DHT22;9121;50.926;5.340;2022-07-29T09:52:20;23.10;99.90
17992;DHT22;9121;50.926;5.340;2022-07-29T09:54:47;22.90;99.90
17992;DHT22;9121;50.926;5.340;2022-07-29T09:57:23;22.90;99.90
17992;DHT22;9121;50.926;5.340;2022-07-29T10:00:03;23.10;99.90
17992;DHT22;9121;50.926;5.340;2022-07-29T10:02:32;23.20;99.90
17992;DHT22;9121;50.926;5.340;2022-07-29T10:05:02;23.30;99.90
17992;DHT22;9121;50.926;5.340;2022-07-29T10:07:44;23.60;99.90
17992;DHT22;9121;50.926;5.340;2022-07-29T10:10:17;23.70;99.90
17992;DHT22;9121;50.926;5.340;2022-07-29T10:12:53;23.60;99.90
17992;DHT22;9121;50.926;5.340;2022-07-29T10:15:22;23.70;99.90
17992;DHT22;9121;50.926;5.340;2022-07-29T10:17:50;23.70;99.90
17992;DHT22;9121;50.926;5.340;2022-07-29T10:20:18;23.90;99.90
17992;DHT22;9121;50.926;5.340;2022-07-29T10:22:46;24.10;99.90
17992;DHT22;9121;50.926;5.340;2022-07-29T10:25:15;24.20;99.90
17992;DHT22;9121;50.926;5.340;2022-07-29T10:27:42;24.40;99.90
17992;DHT22;9121;50.926;5.340;2022-07-29T10:30:11;24.20;99.90
17992;DHT22;9121;50.926;5.340;2022-07-29T10:32:53;24.30;99.90
17992;DHT22;9121;50.926;5.340;2022-07-29T10:35:48;24.20;99.90
17992;DHT22;9121;50.926;5.340;2022-07-29T10:38:34;24.20;99.90
17992;DHT22;9121;50.926;5.340;2022-07-29T10:41:17;24.20;99.90
17992;DHT22;9121;50.926;5.340;2022-07-29T10:43:58;24.40;99.90
17992;DHT22;9121;50.926;5.340;2022-07-29T10:46:26;24.40;99.90
17992;DHT22;9121;50.926;5.340;2022-07-29T10:49:11;24.40;99.90
17992;DHT22;9121;50.926;5.340;2022-07-29T10:51:58;24.60;99.90
17992;DHT22;9121;50.926;5.340;2022-07-29T10:54:46;24.60;99.90
17992;DHT22;9121;50.926;5.340;2022-07-29T10:57:18;24.80;99.90
17992;DHT22;9121;50.926;5.340;2022-07-29T10:59:47;24.80;99.90
17992;DHT22;9121;50.926;5.340;2022-07-29T11:02:45;24.80;99.90
17992;DHT22;9121;50.926;5.340;2022-07-29T11:05:18;25.10;99.90
17992;DHT22;9121;50.926;5.340;2022-07-29T11:08:18;25.10;99.90
17992;DHT22;9121;50.926;5.340;2022-07-29T11:10:46;25.10;99.90
17992;DHT22;9121;50.926;5.340;2022-07-29T11:13:47;25.10;99.90
17992;DHT22;9121;50.926;5.340;2022-07-29T11:16:16;25.40;99.90
17992;DHT22;9121;50.926;5.340;2022-07-29T11:19:20;25.50;99.90
17992;DHT22;9121;50.926;5.340;2022-07-29T11:21:48;25.50;99.90
17992;DHT22;9121;50.926;5.340;2022-07-29T11:24:22;26.00;99.90
17992;DHT22;9121;50.926;5.340;2022-07-29T11:27:13;26.10;99.90
17992;DHT22;9121;50.926;5.340;2022-07-29T11:29:49;26.10;99.90
17992;DHT22;9121;50.926;5.340;2022-07-29T11:32:17;26.10;99.90
17992;DHT22;9121;50.926;5.340;2022-07-29T11:34:46;25.90;99.90
17992;DHT22;9121;50.926;5.340;2022-07-29T11:37:23;25.90;99.90
17992;DHT22;9121;50.926;5.340;2022-07-29T11:40:15;26.00;99.90
17992;DHT22;9121;50.926;5.340;2022-07-29T11:42:47;26.70;99.90
17992;DHT22;9121;50.926;5.340;2022-07-29T11:45:17;27.10;99.90
17992;DHT22;9121;50.926;5.340;2022-07-29T11:47:50;27.50;99.90
17992;DHT22;9121;50.926;5.340;2022-07-29T11:50:26;27.70;99.90
17992;DHT22;9121;50.926;5.340;2022-07-29T11:52:53;27.70;99.90
17992;DHT22;9121;50.926;5.340;2022-07-29T11:55:23;27.70;99.90
17992;DHT22;9121;50.926;5.340;2022-07-29T11:57:52;27.50;99.90
17992;DHT22;9121;50.926;5.340;2022-07-29T12:00:28;27.20;99.90
17992;DHT22;9121;50.926;5.340;2022-07-29T12:02:57;27.40;99.90
17992;DHT22;9121;50.926;5.340;2022-07-29T12:05:35;28.00;99.90
17992;DHT22;9121;50.926;5.340;2022-07-29T12:08:08;28.10;99.90
17992;DHT22;9121;50.926;5.340;2022-07-29T12:10:37;28.40;99.90
17992;DHT22;9121;50.926;5.340;2022-07-29T12:13:04;28.00;99.90
17992;DHT22;9121;50.926;5.340;2022-07-29T12:15:31;27.30;99.90
17992;DHT22;9121;50.926;5.340;2022-07-29T12:17:58;26.50;99.90
17992;DHT22;9121;50.926;5.340;2022-07-29T12:20:27;26.30;99.90
17992;DHT22;9121;50.926;5.340;2022-07-29T12:22:54;26.20;99.90
17992;DHT22;9121;50.926;5.340;2022-07-29T12:25:23;26.10;99.90
17992;DHT22;9121;50.926;5.340;2022-07-29T12:28:02;26.00;99.90
17992;DHT22;9121;50.926;5.340;2022-07-29T12:30:38;26.50;99.90
17992;DHT22;9121;50.926;5.340;2022-07-29T12:33:13;27.10;99.90
17992;DHT22;9121;50.926;5.340;2022-07-29T12:35:42;27.80;99.90
17992;DHT22;9121;50.926;5.340;2022-07-29T12:38:10;28.60;99.90
17992;DHT22;9121;50.926;5.340;2022-07-29T12:40:37;29.50;99.90
17992;DHT22;9121;50.926;5.340;2022-07-29T12:43:07;30.00;99.90
17992;DHT22;9121;50.926;5.340;2022-07-29T12:45:34;30.70;99.90
17992;DHT22;9121;50.926;5.340;2022-07-29T12:48:02;31.80;99.90
17992;DHT22;9121;50.926;5.340;2022-07-29T12:50:29;32.10;99.90
17992;DHT22;9121;50.926;5.340;2022-07-29T12:53:09;30.90;99.90
17992;DHT22;9121;50.926;5.340;2022-07-29T12:55:41;29.60;99.90
17992;DHT22;9121;50.926;5.340;2022-07-29T12:58:10;28.50;99.90
17992;DHT22;9121;50.926;5.340;2022-07-29T13:00:37;27.90;99.90
17992;DHT22;9121;50.926;5.340;2022-07-29T13:03:04;27.90;99.90
17992;DHT22;9121;50.926;5.340;2022-07-29T13:05:42;28.00;99.90
17992;DHT22;9121;50.926;5.340;2022-07-29T13:08:13;28.40;99.90
17992;DHT22;9121;50.926;5.340;2022-07-29T13:10:41;28.70;99.90
17992;DHT22;9121;50.926;5.340;2022-07-29T13:13:12;28.80;99.90
17992;DHT22;9121;50.926;5.340;2022-07-29T13:15:40;30.10;99.90
17992;DHT22;9121;50.926;5.340;2022-07-29T13:18:29;31.40;99.90
17992;DHT22;9121;50.926;5.340;2022-07-29T13:20:56;33.00;97.50
17992;DHT22;9121;50.926;5.340;2022-07-29T13:23:23;33.60;97.10
17992;DHT22;9121;50.926;5.340;2022-07-29T13:25:50;34.00;94.70
17992;DHT22;9121;50.926;5.340;2022-07-29T13:28:18;32.00;95.00
17992;DHT22;9121;50.926;5.340;2022-07-29T13:30:46;30.50;96.60
17992;DHT22;9121;50.926;5.340;2022-07-29T13:33:14;29.80;97.50
17992;DHT22;9121;50.926;5.340;2022-07-29T13:35:41;30.10;97.50
17992;DHT22;9121;50.926;5.340;2022-07-29T13:38:08;30.90;96.90
17992;DHT22;9121;50.926;5.340;2022-07-29T13:40:35;31.40;95.90
17992;DHT22;9121;50.926;5.340;2022-07-29T13:43:01;32.80;94.10
17992;DHT22;9121;50.926;5.340;2022-07-29T13:45:30;33.90;92.30
17992;DHT22;9121;50.926;5.340;2022-07-29T13:47:57;34.40;91.20
17992;DHT22;9121;50.926;5.340;2022-07-29T13:50:24;34.40;89.20
17992;DHT22;9121;50.926;5.340;2022-07-29T13:52:51;34.30;88.20
17992;DHT22;9121;50.926;5.340;2022-07-29T13:55:18;34.10;87.80
17992;DHT22;9121;50.926;5.340;2022-07-29T13:57:45;33.40;87.50
17992;DHT22;9121;50.926;5.340;2022-07-29T14:00:13;31.90;88.80
17992;DHT22;9121;50.926;5.340;2022-07-29T14:02:42;31.50;89.70
17992;DHT22;9121;50.926;5.340;2022-07-29T14:05:09;31.70;90.30
17992;DHT22;9121;50.926;5.340;2022-07-29T14:07:36;32.70;88.90
17992;DHT22;9121;50.926;5.340;2022-07-29T14:10:04;33.20;87.70
17992;DHT22;9121;50.926;5.340;2022-07-29T14:12:31;32.70;85.70
17992;DHT22;9121;50.926;5.340;2022-07-29T14:14:58;32.10;86.80
17992;DHT22;9121;50.926;5.340;2022-07-29T14:17:25;32.70;85.10
17992;DHT22;9121;50.926;5.340;2022-07-29T14:19:54;33.10;83.60
17992;DHT22;9121;50.926;5.340;2022-07-29T14:22:20;33.50;83.90
17992;DHT22;9121;50.926;5.340;2022-07-29T14:24:47;34.00;81.00
17992;DHT22;9121;50.926;5.340;2022-07-29T14:27:14;34.60;80.90
17992;DHT22;9121;50.926;5.340;2022-07-29T14:29:41;34.90;80.60
17992;DHT22;9121;50.926;5.340;2022-07-29T14:32:09;35.40;78.70
17992;DHT22;9121;50.926;5.340;2022-07-29T14:34:37;35.60;78.00
17992;DHT22;9121;50.926;5.340;2022-07-29T14:37:06;34.70;78.00
17992;DHT22;9121;50.926;5.340;2022-07-29T14:39:34;33.40;79.90
17992;DHT22;9121;50.926;5.340;2022-07-29T14:42:01;32.80;80.80
17992;DHT22;9121;50.926;5.340;2022-07-29T14:44:28;32.40;82.70
17992;DHT22;9121;50.926;5.340;2022-07-29T14:46:56;32.20;81.30
17992;DHT22;9121;50.926;5.340;2022-07-29T14:49:24;33.00;81.10
17992;DHT22;9121;50.926;5.340;2022-07-29T14:51:51;33.90;78.90
17992;DHT22;9121;50.926;5.340;2022-07-29T14:54:19;33.80;77.70
17992;DHT22;9121;50.926;5.340;2022-07-29T14:56:46;33.60;78.60
17992;DHT22;9121;50.926;5.340;2022-07-29T14:59:14;34.10;76.50
17992;DHT22;9121;50.926;5.340;2022-07-29T15:01:41;34.00;77.00
17992;DHT22;9121;50.926;5.340;2022-07-29T15:04:08;34.60;74.80
17992;DHT22;9121;50.926;5.340;2022-07-29T15:06:35;33.90;76.00
17992;DHT22;9121;50.926;5.340;2022-07-29T15:09:03;32.10;77.50
17992;DHT22;9121;50.926;5.340;2022-07-29T15:11:31;31.50;78.50
17992;DHT22;9121;50.926;5.340;2022-07-29T15:13:58;31.30;79.20
17992;DHT22;9121;50.926;5.340;2022-07-29T15:16:25;30.90;79.30
17992;DHT22;9121;50.926;5.340;2022-07-29T15:18:52;30.70;79.80
17992;DHT22;9121;50.926;5.340;2022-07-29T15:21:19;30.70;79.30
17992;DHT22;9121;50.926;5.340;2022-07-29T15:23:46;30.80;79.80
17992;DHT22;9121;50.926;5.340;2022-07-29T15:26:13;31.90;77.60
17992;DHT22;9121;50.926;5.340;2022-07-29T15:28:41;32.00;77.30
17992;DHT22;9121;50.926;5.340;2022-07-29T15:31:08;31.60;77.20
17992;DHT22;9121;50.926;5.340;2022-07-29T15:33:35;31.10;77.30
17992;DHT22;9121;50.926;5.340;2022-07-29T15:36:02;30.90;77.90
17992;DHT22;9121;50.926;5.340;2022-07-29T15:38:30;30.60;78.90
17992;DHT22;9121;50.926;5.340;2022-07-29T15:40:58;30.20;79.20
17992;DHT22;9121;50.926;5.340;2022-07-29T15:43:25;29.80;80.40
17992;DHT22;9121;50.926;5.340;2022-07-29T15:45:53;29.60;81.30
17992;DHT22;9121;50.926;5.340;2022-07-29T15:48:38;29.60;80.50
17992;DHT22;9121;50.926;5.340;2022-07-29T15:51:05;29.50;80.70
17992;DHT22;9121;50.926;5.340;2022-07-29T15:53:32;29.40;80.80
17992;DHT22;9121;50.926;5.340;2022-07-29T15:55:59;29.10;81.30
17992;DHT22;9121;50.926;5.340;2022-07-29T15:58:26;29.10;82.00
17992;DHT22;9121;50.926;5.340;2022-07-29T16:00:55;29.10;82.30
17992;DHT22;9121;50.926;5.340;2022-07-29T16:03:22;29.10;81.30
17992;DHT22;9121;50.926;5.340;2022-07-29T16:05:49;29.00;81.10